createdAt,value
2023-02-04T00:00:30.537Z,103221.03
2023-02-04T00:02:58.001Z,103210.06
2023-02-04T00:05:25.207Z,103219.94
2023-02-04T00:07:52.148Z,103222.50
2023-02-04T00:10:19.435Z,103216.00
2023-02-04T00:12:46.611Z,103238.53
2023-02-04T00:15:13.511Z,103243.56
2023-02-04T00:17:40.590Z,103250.81
2023-02-04T00:20:07.838Z,103247.47
2023-02-04T00:22:34.710Z,103262.09
2023-02-04T00:25:01.840Z,103253.47
2023-02-04T00:27:28.835Z,103259.41
2023-02-04T00:29:56.423Z,103266.97
2023-02-04T00:32:23.835Z,103275.47
2023-02-04T00:34:50.910Z,103249.88
2023-02-04T00:37:17.798Z,103283.03
2023-02-04T00:39:45.367Z,103295.75
2023-02-04T00:42:12.587Z,103305.13
2023-02-04T00:44:39.478Z,103309.34
2023-02-04T00:47:06.557Z,103303.19
2023-02-04T00:49:34.695Z,103317.84
2023-02-04T00:52:01.973Z,103315.16
2023-02-04T00:54:29.266Z,103297.59
2023-02-04T00:56:56.158Z,103305.66
2023-02-04T00:59:23.501Z,103313.34
2023-02-04T01:01:51.830Z,103314.13
2023-02-04T01:04:19.357Z,103310.66
2023-02-04T01:06:46.282Z,103316.47
2023-02-04T01:09:13.597Z,103288.66
2023-02-04T01:11:40.541Z,103326.84
2023-02-04T01:14:07.494Z,103317.03
2023-02-04T01:16:34.619Z,103310.91
2023-02-04T01:19:01.647Z,103322.38
2023-02-04T01:21:28.549Z,103296.56
2023-02-04T01:23:55.787Z,103265.06
2023-02-04T01:26:22.836Z,103326.63
2023-02-04T01:28:49.874Z,103330.84
2023-02-04T01:31:17.513Z,103326.50
2023-02-04T01:33:44.645Z,103319.16
2023-02-04T01:36:12.210Z,103265.22
2023-02-04T01:38:39.346Z,103332.34
2023-02-04T01:41:06.541Z,103327.09
2023-02-04T01:43:34.479Z,103339.13
2023-02-04T01:46:02.844Z,103337.22
2023-02-04T01:48:30.937Z,103341.44
2023-02-04T01:51:05.194Z,103355.06
2023-02-04T01:53:33.544Z,103362.66
2023-02-04T01:56:01.086Z,103354.59
2023-02-04T01:58:32.386Z,103308.53
2023-02-04T02:01:00.672Z,103343.53
2023-02-04T02:03:27.684Z,103339.13
2023-02-04T02:05:55.784Z,103338.97
2023-02-04T02:08:26.033Z,103339.06
2023-02-04T02:10:53.024Z,103341.53
2023-02-04T02:13:20.279Z,103348.31
2023-02-04T02:15:48.152Z,103330.16
2023-02-04T02:18:16.256Z,103347.84
2023-02-04T02:20:44.540Z,103359.22
2023-02-04T02:23:30.246Z,103371.16
2023-02-04T02:25:58.011Z,103368.09
2023-02-04T02:28:25.006Z,103379.47
2023-02-04T02:30:52.606Z,103387.97
2023-02-04T02:33:21.218Z,103384.66
2023-02-04T02:35:49.870Z,103405.69
2023-02-04T02:38:19.125Z,103390.84
2023-02-04T02:40:47.143Z,103414.91
2023-02-04T02:43:17.381Z,103362.34
2023-02-04T02:45:45.548Z,103408.81
2023-02-04T02:48:13.404Z,103423.13
2023-02-04T02:50:42.002Z,103418.91
2023-02-04T02:53:14.004Z,103411.97
2023-02-04T02:55:42.450Z,103411.84
2023-02-04T02:58:41.293Z,103411.72
2023-02-04T03:01:30.643Z,103413.28
2023-02-04T03:04:17.610Z,103422.66
2023-02-04T03:07:05.039Z,103431.13
2023-02-04T03:09:53.382Z,103426.50
2023-02-04T03:12:40.577Z,103413.34
2023-02-04T03:15:27.848Z,103434.59
2023-02-04T03:18:14.906Z,103450.38
2023-02-04T03:21:02.414Z,103448.59
2023-02-04T03:23:51.460Z,103435.41
2023-02-04T03:26:38.875Z,103458.59
2023-02-04T03:29:32.387Z,103458.31
2023-02-04T03:32:19.252Z,103466.91
2023-02-04T03:35:06.321Z,103458.84
2023-02-04T03:37:53.145Z,103462.44
2023-02-04T03:40:40.288Z,103387.94
2023-02-04T03:43:27.113Z,103470.00
2023-02-04T03:46:14.346Z,103468.19
2023-02-04T03:49:01.203Z,103456.31
2023-02-04T03:51:48.261Z,103476.53
2023-02-04T03:54:35.110Z,103457.22
2023-02-04T03:57:22.346Z,103488.31
2023-02-04T04:00:09.344Z,103413.56
2023-02-04T04:02:59.974Z,103499.09
2023-02-04T04:05:47.013Z,103502.69
2023-02-04T04:08:34.055Z,103505.25
2023-02-04T04:11:21.118Z,103512.81
2023-02-04T04:14:08.246Z,103518.81
2023-02-04T04:16:55.150Z,103513.69
2023-02-04T04:19:42.157Z,103515.13
2023-02-04T04:22:28.937Z,103512.44
2023-02-04T04:25:16.059Z,103409.13
2023-02-04T04:28:03.223Z,103509.09
2023-02-04T04:30:50.348Z,103521.91
2023-02-04T04:33:37.173Z,103525.25
2023-02-04T04:36:24.362Z,103525.25
2023-02-04T04:39:11.327Z,103530.25
2023-02-04T04:41:58.191Z,103530.25
2023-02-04T04:44:45.079Z,103523.59
2023-02-04T04:47:32.141Z,103505.41
2023-02-04T04:50:19.202Z,103522.94
2023-02-04T04:53:06.102Z,103524.88
2023-02-04T04:55:53.062Z,103535.88
2023-02-04T04:58:40.158Z,103539.09
2023-02-04T05:01:27.102Z,103533.06
2023-02-04T05:04:14.149Z,103530.50
2023-02-04T05:07:01.059Z,103516.91
2023-02-04T05:09:48.088Z,103527.81
2023-02-04T05:12:35.166Z,103540.63
2023-02-04T05:15:22.166Z,103551.50
2023-02-04T05:18:09.164Z,103533.44
2023-02-04T05:20:56.181Z,103533.94
2023-02-04T05:23:43.101Z,103543.56
2023-02-04T05:26:31.329Z,103514.25
2023-02-04T05:29:19.290Z,103549.44
2023-02-04T05:32:06.255Z,103546.75
2023-02-04T05:34:53.238Z,103519.72
2023-02-04T05:37:40.225Z,103552.53
2023-02-04T05:40:27.781Z,103549.84
2023-02-04T05:43:14.801Z,103559.97
2023-02-04T05:46:01.818Z,103531.75
2023-02-04T05:48:48.724Z,103554.69
2023-02-04T05:51:35.605Z,103563.66
2023-02-04T05:54:22.491Z,103569.56
2023-02-04T05:57:09.408Z,103572.91
2023-02-04T05:59:56.443Z,103576.97
2023-02-04T06:02:43.373Z,103569.81
2023-02-04T06:05:30.554Z,103589.53
2023-02-04T06:08:17.501Z,103589.41
2023-02-04T06:11:04.482Z,103576.84
2023-02-04T06:13:51.714Z,103584.53
2023-02-04T06:16:38.764Z,103591.44
2023-02-04T06:19:25.724Z,103595.38
2023-02-04T06:22:12.706Z,103597.03
2023-02-04T06:24:59.817Z,103596.91
2023-02-04T06:27:46.747Z,103594.84
2023-02-04T06:30:36.871Z,103556.16
2023-02-04T06:33:24.062Z,103602.41
2023-02-04T06:36:10.935Z,103615.09
2023-02-04T06:38:57.932Z,103616.75
2023-02-04T06:41:44.778Z,103617.13
2023-02-04T06:44:31.934Z,103592.25
2023-02-04T06:47:18.857Z,103610.50
2023-02-04T06:50:06.111Z,103612.03
2023-02-04T06:52:53.103Z,103513.53
2023-02-04T06:55:40.120Z,103582.00
2023-02-04T06:58:27.032Z,103619.31
2023-02-04T07:01:14.205Z,103625.19
2023-02-04T07:04:01.184Z,103625.06
2023-02-04T07:06:48.303Z,103611.28
2023-02-04T07:09:35.111Z,103635.16
2023-02-04T07:12:22.135Z,103635.78
2023-02-04T07:15:09.061Z,103640.03
2023-02-04T07:17:56.137Z,103610.34
2023-02-04T07:20:42.922Z,103648.44
2023-02-04T07:23:09.956Z,103646.66
2023-02-04T07:25:56.846Z,103602.09
2023-02-04T07:28:24.025Z,103651.63
2023-02-04T07:31:11.122Z,103653.28
2023-02-04T07:33:42.638Z,103657.50
2023-02-04T07:36:09.650Z,103652.75
2023-02-04T07:38:36.934Z,103665.19
2023-02-04T07:41:04.445Z,103590.78
2023-02-04T07:43:31.624Z,103631.69
2023-02-04T07:45:58.541Z,103601.28
2023-02-04T07:48:25.750Z,103673.78
2023-02-04T07:50:52.631Z,103666.47
2023-02-04T07:53:19.560Z,103667.34
2023-02-04T07:55:46.625Z,103679.94
2023-02-04T07:58:13.588Z,103665.81
2023-02-04T08:00:40.504Z,103676.31
2023-02-04T08:03:07.689Z,103682.63
2023-02-04T08:05:34.720Z,103687.88
2023-02-04T08:08:02.078Z,103678.56
2023-02-04T08:10:29.237Z,103673.56
2023-02-04T08:12:56.397Z,103673.72
2023-02-04T08:15:23.433Z,103682.41
2023-02-04T08:17:50.373Z,103683.16
2023-02-04T08:20:18.455Z,103601.19
2023-02-04T08:22:45.746Z,103683.56
2023-02-04T08:25:13.182Z,103678.44
2023-02-04T08:27:40.152Z,103679.63
2023-02-04T08:30:07.718Z,103689.38
2023-02-04T08:32:34.922Z,103681.00
2023-02-04T08:35:02.140Z,103673.47
2023-02-04T08:37:49.321Z,103652.47
2023-02-04T08:40:36.286Z,103668.88
2023-02-04T08:43:23.279Z,103676.09
2023-02-04T08:46:10.214Z,103684.81
2023-02-04T08:48:57.219Z,103696.19
2023-02-04T08:51:44.138Z,103694.81
2023-02-04T08:54:31.160Z,103685.81
2023-02-04T08:57:18.126Z,103709.19
2023-02-04T09:00:05.079Z,103704.06
2023-02-04T09:02:52.137Z,103684.84
2023-02-04T09:05:39.107Z,103705.88
2023-02-04T09:08:26.149Z,103709.75
2023-02-04T09:11:13.072Z,103684.63
2023-02-04T09:14:00.063Z,103703.63
2023-02-04T09:16:47.269Z,103661.19
2023-02-04T09:19:34.116Z,103689.81
2023-02-04T09:22:21.030Z,103672.47
2023-02-04T09:25:07.867Z,103699.16
2023-02-04T09:27:54.807Z,103693.53
2023-02-04T09:30:41.775Z,103695.72
2023-02-04T09:33:30.279Z,103684.06
2023-02-04T09:36:17.128Z,103652.41
2023-02-04T09:39:04.140Z,103671.09
2023-02-04T09:41:51.021Z,103670.88
2023-02-04T09:44:41.059Z,103668.56
2023-02-04T09:47:32.199Z,103663.94
2023-02-04T09:50:19.270Z,103659.19
2023-02-04T09:53:08.394Z,103626.13
2023-02-04T09:55:59.325Z,103628.28
2023-02-04T09:58:52.526Z,103640.81
2023-02-04T10:01:40.601Z,103644.50
2023-02-04T10:04:34.318Z,103627.19
2023-02-04T10:07:21.189Z,103642.06
2023-02-04T10:10:08.897Z,103633.81
2023-02-04T10:12:55.838Z,103642.03
2023-02-04T10:15:43.061Z,103640.59
2023-02-04T10:18:37.904Z,103649.72
2023-02-04T10:21:48.578Z,103639.81
2023-02-04T10:24:38.814Z,103624.91
2023-02-04T10:27:30.312Z,103623.50
2023-02-04T10:30:18.346Z,103623.38
2023-02-04T10:33:05.194Z,103625.09
2023-02-04T10:35:52.641Z,103624.69
2023-02-04T10:38:40.104Z,103616.44
2023-02-04T10:41:27.166Z,103590.28
2023-02-04T10:44:27.783Z,103612.16
2023-02-04T10:47:26.891Z,103603.94
2023-02-04T10:50:20.410Z,103585.81
2023-02-04T10:53:11.390Z,103590.53
2023-02-04T10:55:58.291Z,103596.50
2023-02-04T10:58:49.312Z,103508.16
2023-02-04T11:01:36.649Z,103600.69
2023-02-04T11:04:23.798Z,103547.28
2023-02-04T11:07:11.418Z,103604.88
2023-02-04T11:10:02.037Z,103609.47
2023-02-04T11:13:01.863Z,103608.91
2023-02-04T11:16:03.411Z,103607.59
2023-02-04T11:18:50.413Z,103608.81
2023-02-04T11:21:49.657Z,103613.53
2023-02-04T11:24:36.528Z,103611.19
2023-02-04T11:27:57.671Z,103609.66
2023-02-04T11:30:52.646Z,103577.16
2023-02-04T11:33:45.236Z,103613.03
2023-02-04T11:36:34.421Z,103610.00
2023-02-04T11:39:35.423Z,103596.28
2023-02-04T11:42:22.801Z,103599.53
2023-02-04T11:45:14.909Z,103587.69
2023-02-04T11:48:03.676Z,103599.31
2023-02-04T11:50:55.235Z,103601.34
2023-02-04T11:53:44.920Z,103564.75
2023-02-04T11:56:39.014Z,103589.16
2023-02-04T11:59:25.790Z,103586.81
2023-02-04T12:02:24.538Z,103545.25
2023-02-04T12:05:17.847Z,103587.59
2023-02-04T12:08:06.059Z,103579.31
2023-02-04T12:10:53.870Z,103557.13
2023-02-04T12:13:43.775Z,103541.34
2023-02-04T12:16:30.706Z,103575.63
2023-02-04T12:19:17.737Z,103568.34
2023-02-04T12:22:04.822Z,103567.22
2023-02-04T12:24:51.709Z,103560.63
2023-02-04T12:27:38.772Z,103546.59
2023-02-04T12:30:26.096Z,103537.88
2023-02-04T12:33:14.993Z,103471.84
2023-02-04T12:35:42.661Z,103560.59
2023-02-04T12:38:10.432Z,103555.88
2023-02-04T12:40:37.846Z,103483.38
2023-02-04T12:43:04.930Z,103558.88
2023-02-04T12:45:32.745Z,103559.19
2023-02-04T12:47:59.883Z,103549.91
2023-02-04T12:50:27.059Z,103525.06
2023-02-04T12:52:58.530Z,103523.91
2023-02-04T12:55:28.128Z,103544.50
2023-02-04T12:57:56.319Z,103532.28
2023-02-04T13:00:24.392Z,103530.25
2023-02-04T13:02:51.535Z,103516.94
2023-02-04T13:05:18.737Z,103538.31
2023-02-04T13:08:05.761Z,103534.16
2023-02-04T13:10:52.695Z,103540.38
2023-02-04T13:13:40.913Z,103536.22
2023-02-04T13:16:27.809Z,103532.06
2023-02-04T13:19:14.878Z,103533.84
2023-02-04T13:22:02.051Z,103525.53
2023-02-04T13:24:49.027Z,103523.97
2023-02-04T13:27:36.015Z,103517.22
2023-02-04T13:30:23.728Z,103512.06
2023-02-04T13:33:10.659Z,103509.69
2023-02-04T13:35:57.626Z,103513.28
2023-02-04T13:38:45.125Z,103508.25
2023-02-04T13:41:32.497Z,103490.75
2023-02-04T13:44:19.886Z,103473.06
2023-02-04T13:47:06.873Z,103498.91
2023-02-04T13:49:53.910Z,103505.06
2023-02-04T13:52:41.206Z,103497.44
2023-02-04T13:55:28.198Z,103495.75
2023-02-04T13:58:15.262Z,103480.06
2023-02-04T14:01:02.280Z,103482.75
2023-02-04T14:03:50.133Z,103477.59
2023-02-04T14:06:37.043Z,103489.00
2023-02-04T14:09:24.828Z,103428.34
2023-02-04T14:12:11.802Z,103486.31
2023-02-04T14:14:58.794Z,103483.84
2023-02-04T14:17:45.817Z,103485.53
2023-02-04T14:20:33.365Z,103488.13
2023-02-04T14:23:20.546Z,103482.97
2023-02-04T14:26:07.560Z,103473.41
2023-02-04T14:28:54.645Z,103479.47
2023-02-04T14:31:41.721Z,103439.34
2023-02-04T14:34:28.773Z,103461.81
2023-02-04T14:37:15.693Z,103466.06
2023-02-04T14:40:02.663Z,103461.00
2023-02-04T14:42:49.822Z,103460.00
2023-02-04T14:45:37.008Z,103453.97
2023-02-04T14:48:24.929Z,103458.13
2023-02-04T14:51:11.976Z,103445.94
2023-02-04T14:53:59.310Z,103438.34
2023-02-04T14:56:46.352Z,103455.03
2023-02-04T14:59:33.522Z,103449.78
2023-02-04T15:02:20.473Z,103412.06
2023-02-04T15:05:07.536Z,103416.41
2023-02-04T15:07:54.842Z,103445.75
2023-02-04T15:10:42.044Z,103440.44
2023-02-04T15:13:29.227Z,103433.28
2023-02-04T15:16:16.391Z,103422.25
2023-02-04T15:19:04.166Z,103419.56
2023-02-04T15:21:51.070Z,103436.81
2023-02-04T15:24:38.282Z,103439.19
2023-02-04T15:27:26.349Z,103438.19
2023-02-04T15:30:13.735Z,103391.06
2023-02-04T15:33:01.002Z,103386.69
2023-02-04T15:35:48.157Z,103432.19
2023-02-04T15:38:35.131Z,103429.41
2023-02-04T15:41:22.506Z,103432.56
2023-02-04T15:44:09.569Z,103407.09
2023-02-04T15:46:56.664Z,103431.13
2023-02-04T15:49:43.761Z,103435.25
2023-02-04T15:52:30.726Z,103415.91
2023-02-04T15:55:17.855Z,103410.22
2023-02-04T15:58:05.081Z,103419.97
2023-02-04T16:00:51.919Z,103403.66
2023-02-04T16:03:38.813Z,103331.00
2023-02-04T16:06:25.910Z,103369.03
2023-02-04T16:09:12.857Z,103411.16
2023-02-04T16:12:00.030Z,103409.16
2023-02-04T16:14:47.235Z,103391.50
2023-02-04T16:17:34.185Z,103393.06
2023-02-04T16:20:21.782Z,103397.09
2023-02-04T16:23:08.903Z,103394.19
2023-02-04T16:25:55.791Z,103391.28
2023-02-04T16:28:42.731Z,103391.06
2023-02-04T16:31:29.834Z,103388.16
2023-02-04T16:34:16.897Z,103386.84
2023-02-04T16:37:03.902Z,103384.94
2023-02-04T16:39:51.116Z,103383.81
2023-02-04T16:42:38.319Z,103383.47
2023-02-04T16:45:25.653Z,103372.00
2023-02-04T16:48:12.642Z,103368.28
2023-02-04T16:50:59.606Z,103376.59
2023-02-04T16:53:46.479Z,103377.13
2023-02-04T16:56:33.943Z,103368.31
2023-02-04T16:59:24.697Z,103368.63
2023-02-04T17:02:11.593Z,103359.06
2023-02-04T17:04:58.506Z,103367.31
2023-02-04T17:07:45.428Z,103364.53
2023-02-04T17:10:33.058Z,103361.63
2023-02-04T17:13:20.607Z,103351.81
2023-02-04T17:16:07.595Z,103360.19
2023-02-04T17:18:54.747Z,103350.44
2023-02-04T17:21:47.146Z,103367.31
2023-02-04T17:24:34.369Z,103338.94
2023-02-04T17:27:21.637Z,103295.91
2023-02-04T17:30:08.655Z,103342.28
2023-02-04T17:32:55.631Z,103344.63
2023-02-04T17:35:42.543Z,103349.56
2023-02-04T17:38:29.502Z,103336.25
2023-02-04T17:41:17.505Z,103339.47
2023-02-04T17:44:04.547Z,103321.81
2023-02-04T17:46:51.883Z,103321.81
2023-02-04T17:49:38.937Z,103323.25
2023-02-04T17:52:05.899Z,103303.81
2023-02-04T17:54:34.313Z,103311.38
2023-02-04T17:57:12.651Z,103233.97
2023-02-04T17:59:41.047Z,103286.59
2023-02-04T18:02:21.153Z,103288.28
2023-02-04T18:04:48.116Z,103295.28
2023-02-04T18:07:14.995Z,103301.09
2023-02-04T18:09:42.115Z,103290.50
2023-02-04T18:12:15.584Z,103243.09
2023-02-04T18:14:44.903Z,103268.25
2023-02-04T18:17:13.890Z,103279.66
2023-02-04T18:19:42.078Z,103264.31
2023-02-04T18:22:17.955Z,103272.38
2023-02-04T18:24:48.605Z,103267.00
2023-02-04T18:27:25.126Z,103233.91
2023-02-04T18:30:16.552Z,103260.53
2023-02-04T18:33:03.399Z,103252.59
2023-02-04T18:35:57.973Z,103256.59
2023-02-04T18:38:44.848Z,103247.88
2023-02-04T18:41:37.699Z,103243.31
2023-02-04T18:44:48.538Z,103237.94
2023-02-04T18:48:01.739Z,103235.16
2023-02-04T18:50:48.715Z,103223.78
2023-02-04T18:53:35.799Z,103212.41
2023-02-04T18:56:29.293Z,103215.63
2023-02-04T18:59:16.136Z,103168.03
2023-02-04T19:02:03.716Z,103208.38
2023-02-04T19:05:06.148Z,103209.91
2023-02-04T19:07:59.643Z,103197.50
2023-02-04T19:10:49.954Z,103224.06
2023-02-04T19:13:47.522Z,103202.53
2023-02-04T19:17:04.262Z,103206.53
2023-02-04T19:19:53.876Z,103191.03
2023-02-04T19:23:02.392Z,103183.13
2023-02-04T19:25:53.226Z,103077.78
2023-02-04T19:28:45.719Z,103183.63
2023-02-04T19:31:33.212Z,103174.97
2023-02-04T19:34:21.658Z,103187.66
2023-02-04T19:37:08.590Z,103173.81
2023-02-04T19:39:57.758Z,103054.72
2023-02-04T19:42:57.198Z,103161.69
2023-02-04T19:45:46.122Z,103133.34
2023-02-04T19:48:51.451Z,103140.94
2023-02-04T19:51:44.091Z,103133.13
2023-02-04T19:54:37.743Z,103112.78
2023-02-04T19:57:46.440Z,103110.47
2023-02-04T20:00:56.772Z,103118.94
2023-02-04T20:03:51.147Z,103110.22
2023-02-04T20:06:43.471Z,103115.25
2023-02-04T20:09:37.767Z,103106.53
2023-02-04T20:12:42.644Z,103107.88
2023-02-04T20:15:37.987Z,103113.13
2023-02-04T20:18:38.615Z,103100.06
2023-02-04T20:21:31.342Z,103109.53
2023-02-04T20:24:18.885Z,103083.91
2023-02-04T20:26:45.835Z,103077.00
2023-02-04T20:29:22.533Z,103064.19
2023-02-04T20:31:49.581Z,103044.44
2023-02-04T20:34:24.070Z,103021.16
2023-02-04T20:36:52.321Z,103006.00
2023-02-04T20:39:37.168Z,102988.41
2023-02-04T20:42:23.981Z,102998.56
2023-02-04T20:44:51.348Z,102993.66
2023-02-04T20:47:25.301Z,102898.03
2023-02-04T20:49:57.363Z,102982.88
2023-02-04T20:52:46.010Z,102982.31
2023-02-04T20:55:29.041Z,102970.91
2023-02-04T20:58:23.910Z,102980.97
2023-02-04T21:00:54.170Z,102971.75
2023-02-04T21:03:27.767Z,102949.88
2023-02-04T21:05:57.513Z,102958.47
2023-02-04T21:08:27.636Z,102958.69
2023-02-04T21:10:54.720Z,102956.22
2023-02-04T21:13:22.275Z,102946.19
2023-02-04T21:15:49.532Z,102951.56
2023-02-04T21:18:16.805Z,102947.44
2023-02-04T21:20:43.726Z,102925.91
2023-02-04T21:23:10.735Z,102926.56
2023-02-04T21:25:37.964Z,102927.69
2023-02-04T21:28:06.586Z,102870.97
2023-02-04T21:30:33.830Z,102909.25
2023-02-04T21:33:02.142Z,102909.47
2023-02-04T21:35:29.241Z,102900.00
2023-02-04T21:38:03.116Z,102903.97
2023-02-04T21:40:31.400Z,102898.16
2023-02-04T21:42:58.411Z,102807.56
2023-02-04T21:45:25.669Z,102871.31
2023-02-04T21:47:53.346Z,102874.06
2023-02-04T21:50:22.024Z,102869.13
2023-02-04T21:52:49.604Z,102864.09
2023-02-04T21:55:19.383Z,102846.94
2023-02-04T21:57:46.450Z,102853.56
2023-02-04T22:00:14.107Z,102801.00
2023-02-04T22:02:41.105Z,102855.69
2023-02-04T22:05:08.891Z,102837.03
2023-02-04T22:07:37.013Z,102841.56
2023-02-04T22:10:07.657Z,102829.84
2023-02-04T22:12:34.754Z,102823.25
2023-02-04T22:15:04.139Z,102778.16
2023-02-04T22:17:31.385Z,102724.53
2023-02-04T22:19:58.772Z,102759.91
2023-02-04T22:22:25.737Z,102802.72
2023-02-04T22:24:52.581Z,102794.34
2023-02-04T22:27:19.626Z,102797.22
2023-02-04T22:29:46.752Z,102767.38
2023-02-04T22:32:13.925Z,102789.94
2023-02-04T22:35:00.850Z,102788.44
2023-02-04T22:37:47.686Z,102696.66
2023-02-04T22:40:34.592Z,102772.66
2023-02-04T22:43:21.522Z,102771.28
2023-02-04T22:46:08.365Z,102762.06
2023-02-04T22:48:55.551Z,102762.25
2023-02-04T22:51:42.641Z,102758.31
2023-02-04T22:54:29.530Z,102751.59
2023-02-04T22:57:16.422Z,102748.53
2023-02-04T23:00:03.226Z,102747.91
2023-02-04T23:02:50.217Z,102734.41
2023-02-04T23:05:37.477Z,102692.13
2023-02-04T23:08:25.588Z,102721.13
2023-02-04T23:11:12.638Z,102707.22
2023-02-04T23:13:59.545Z,102703.22
2023-02-04T23:16:46.619Z,102708.94
2023-02-04T23:19:33.704Z,102697.19
2023-02-04T23:22:20.966Z,102685.31
2023-02-04T23:25:07.931Z,102680.53
2023-02-04T23:27:54.790Z,102676.34
2023-02-04T23:30:41.960Z,102670.59
2023-02-04T23:33:29.156Z,102659.69
2023-02-04T23:36:16.113Z,102650.41
2023-02-04T23:39:03.171Z,102641.19
2023-02-04T23:41:50.341Z,102633.41
2023-02-04T23:44:37.570Z,102640.66
2023-02-04T23:47:24.535Z,102625.41
2023-02-04T23:50:11.474Z,102622.22
2023-02-04T23:52:58.352Z,102601.47
2023-02-04T23:55:45.348Z,102591.88
2023-02-04T23:58:32.341Z,102607.34
